createdAt,value
2019-02-06T00:02:15.672Z,96548.88
2019-02-06T00:04:48.193Z,96549.25
2019-02-06T00:07:19.624Z,96553.46
2019-02-06T00:09:51.078Z,96548.34
2019-02-06T00:12:22.803Z,96556.73
2019-02-06T00:14:54.279Z,96556.09
2019-02-06T00:17:25.792Z,96554.47
2019-02-06T00:19:57.171Z,96551.83
2019-02-06T00:22:31.520Z,96546.89
2019-02-06T00:25:02.984Z,96553.25
2019-02-06T00:27:34.422Z,96545.37
2019-02-06T00:30:07.944Z,96548.52
2019-02-06T00:32:39.389Z,96548.91
2019-02-06T00:35:10.901Z,96545.31
2019-02-06T00:37:44.258Z,96541.88
2019-02-06T00:40:16.026Z,96540.19
2019-02-06T00:42:47.466Z,96547.01
2019-02-06T00:45:18.958Z,96534.77
2019-02-06T00:47:50.405Z,96549.40
2019-02-06T00:50:22.168Z,96545.46
2019-02-06T00:52:53.628Z,96548.78
2019-02-06T00:55:25.112Z,96548.73
2019-02-06T00:57:56.670Z,96547.01
2019-02-06T01:00:28.365Z,96538.38
2019-02-06T01:03:03.741Z,96539.08
2019-02-06T01:05:38.537Z,96540.18
2019-02-06T01:08:08.445Z,96534.48
2019-02-06T01:10:39.942Z,96544.77
2019-02-06T01:13:11.392Z,96542.95
2019-02-06T01:15:43.162Z,96537.88
2019-02-06T01:18:14.717Z,96537.45
2019-02-06T01:20:46.256Z,96536.34
2019-02-06T01:23:17.810Z,96532.70
2019-02-06T01:25:49.573Z,96533.16
2019-02-06T01:28:21.394Z,96535.00
2019-02-06T01:31:02.859Z,96539.36
2019-02-06T01:33:34.294Z,96537.20
2019-02-06T01:36:06.001Z,96542.55
2019-02-06T01:38:37.470Z,96541.12
2019-02-06T01:41:12.728Z,96542.46
2019-02-06T01:43:43.321Z,96545.01
2019-02-06T01:46:14.801Z,96550.61
2019-02-06T01:48:46.245Z,96551.72
2019-02-06T01:51:17.906Z,96546.69
2019-02-06T01:53:49.377Z,96540.09
2019-02-06T01:56:21.050Z,96537.62
2019-02-06T01:58:52.549Z,96535.25
2019-02-06T02:01:24.050Z,96524.66
2019-02-06T02:03:55.634Z,96525.28
2019-02-06T02:06:27.325Z,96523.48
2019-02-06T02:09:02.088Z,96518.50
2019-02-06T02:11:35.206Z,96513.92
2019-02-06T02:14:07.300Z,96512.02
2019-02-06T02:16:38.840Z,96507.48
2019-02-06T02:19:11.362Z,96510.33
2019-02-06T02:21:42.847Z,96506.66
2019-02-06T02:24:14.306Z,96501.03
2019-02-06T02:26:45.795Z,96507.91
2019-02-06T02:29:18.678Z,96510.98
2019-02-06T02:31:52.417Z,96505.73
2019-02-06T02:34:23.815Z,96509.63
2019-02-06T02:36:55.292Z,96503.86
2019-02-06T02:39:26.741Z,96499.09
2019-02-06T02:41:58.222Z,96497.02
2019-02-06T02:44:29.712Z,96491.85
2019-02-06T02:47:01.262Z,96495.86
2019-02-06T02:49:32.734Z,96489.69
2019-02-06T02:52:07.434Z,96488.90
2019-02-06T02:54:38.884Z,96486.53
2019-02-06T02:57:10.362Z,96483.62
2019-02-06T02:59:41.828Z,96487.77
2019-02-06T03:02:33.282Z,96483.28
2019-02-06T03:05:12.695Z,96482.63
2019-02-06T03:07:44.148Z,96476.42
2019-02-06T03:10:15.625Z,96478.28
2019-02-06T03:12:48.982Z,96476.31
2019-02-06T03:15:20.598Z,96479.58
2019-02-06T03:17:52.204Z,96483.66
2019-02-06T03:20:23.803Z,96484.45
2019-02-06T03:22:55.222Z,96486.20
2019-02-06T03:25:26.670Z,96478.67
2019-02-06T03:27:58.165Z,96480.86
2019-02-06T03:30:29.592Z,96475.55
2019-02-06T03:33:01.066Z,96480.28
2019-02-06T03:35:32.643Z,96478.57
2019-02-06T03:38:04.128Z,96476.08
2019-02-06T03:40:35.589Z,96477.13
2019-02-06T03:43:07.179Z,96476.50
2019-02-06T03:45:38.627Z,96480.80
2019-02-06T03:48:10.098Z,96473.19
2019-02-06T03:50:41.528Z,96479.62
2019-02-06T03:53:13.016Z,96472.85
2019-02-06T03:55:44.648Z,96472.72
2019-02-06T03:58:16.175Z,96468.59
2019-02-06T04:00:47.671Z,96468.53
2019-02-06T04:03:19.135Z,96473.48
2019-02-06T04:05:50.609Z,96477.36
2019-02-06T04:08:23.442Z,96478.30
2019-02-06T04:10:54.828Z,96476.47
2019-02-06T04:13:26.328Z,96474.83
2019-02-06T04:15:57.975Z,96470.63
2019-02-06T04:18:29.499Z,96475.86
2019-02-06T04:21:01.444Z,96473.58
2019-02-06T04:23:33.329Z,96481.69
2019-02-06T04:26:04.773Z,96486.27
2019-02-06T04:28:36.507Z,96473.19
2019-02-06T04:31:08.076Z,96468.16
2019-02-06T04:33:41.292Z,96476.49
2019-02-06T04:36:12.809Z,96477.75
2019-02-06T04:38:44.360Z,96478.98
2019-02-06T04:41:15.863Z,96486.72
2019-02-06T04:43:47.368Z,96478.63
2019-02-06T04:46:19.162Z,96478.53
2019-02-06T04:48:50.607Z,96482.16
2019-02-06T04:51:22.065Z,96486.16
2019-02-06T04:53:53.525Z,96488.64
2019-02-06T04:56:24.996Z,96498.97
2019-02-06T04:58:56.839Z,96496.85
2019-02-06T05:01:28.289Z,96506.05
2019-02-06T05:03:59.777Z,96495.72
2019-02-06T05:06:31.213Z,96502.36
2019-02-06T05:09:06.042Z,96497.38
2019-02-06T05:11:37.886Z,96506.73
2019-02-06T05:14:09.311Z,96507.42
2019-02-06T05:16:40.759Z,96510.28
2019-02-06T05:19:14.019Z,96505.56
2019-02-06T05:21:45.645Z,96507.34
2019-02-06T05:24:17.484Z,96503.46
2019-02-06T05:26:51.919Z,96515.34
2019-02-06T05:29:23.507Z,96511.21
2019-02-06T05:31:56.234Z,96509.91
2019-02-06T05:34:27.654Z,96511.64
2019-02-06T05:36:59.499Z,96506.91
2019-02-06T05:39:31.017Z,96501.49
2019-02-06T05:42:02.510Z,96500.97
2019-02-06T05:44:33.971Z,96497.34
2019-02-06T05:47:05.514Z,96508.47
2019-02-06T05:49:36.915Z,96509.05
2019-02-06T05:52:10.658Z,96509.11
2019-02-06T05:54:44.673Z,96510.81
2019-02-06T05:57:16.113Z,96505.77
2019-02-06T05:59:47.673Z,96504.42
2019-02-06T06:02:19.160Z,96501.25
2019-02-06T06:04:50.649Z,96505.61
2019-02-06T06:07:22.103Z,96505.93
2019-02-06T06:09:53.619Z,96509.88
2019-02-06T06:12:25.091Z,96507.45
2019-02-06T06:14:56.581Z,96512.77
2019-02-06T06:17:28.350Z,96505.30
2019-02-06T06:19:59.746Z,96513.73
2019-02-06T06:22:32.303Z,96516.92
2019-02-06T06:25:03.805Z,96512.89
2019-02-06T06:27:35.307Z,96513.89
2019-02-06T06:30:09.939Z,96521.54
2019-02-06T06:32:41.427Z,96520.73
2019-02-06T06:35:13.239Z,96517.55
2019-02-06T06:37:57.146Z,96510.99
2019-02-06T06:40:21.054Z,96514.52
2019-02-06T06:42:52.532Z,96521.52
2019-02-06T06:45:25.298Z,96524.08
2019-02-06T06:47:56.754Z,96522.25
2019-02-06T06:50:28.474Z,96528.16
2019-02-06T06:52:59.967Z,96531.11
2019-02-06T06:55:31.461Z,96532.95
2019-02-06T06:58:03.209Z,96535.56
2019-02-06T07:00:34.793Z,96532.66
2019-02-06T07:03:06.391Z,96528.91
2019-02-06T07:05:43.097Z,96532.59
2019-02-06T07:08:14.565Z,96535.92
2019-02-06T07:10:46.053Z,96529.41
2019-02-06T07:13:17.527Z,96531.16
2019-02-06T07:15:49.676Z,96519.93
2019-02-06T07:18:21.111Z,96523.18
2019-02-06T07:21:01.395Z,96529.95
2019-02-06T07:23:32.799Z,96523.43
2019-02-06T07:26:04.282Z,96528.68
2019-02-06T07:28:35.749Z,96528.85
2019-02-06T07:31:07.615Z,96536.68
2019-02-06T07:33:39.099Z,96550.17
2019-02-06T07:36:14.009Z,96526.02
2019-02-06T07:38:45.568Z,96527.91
2019-02-06T07:41:18.483Z,96525.11
2019-02-06T07:43:51.315Z,96522.22
2019-02-06T07:46:22.831Z,96525.72
2019-02-06T07:48:54.309Z,96520.59
2019-02-06T07:51:25.811Z,96562.83
2019-02-06T07:53:57.247Z,96552.78
2019-02-06T07:56:28.993Z,96540.50
2019-02-06T07:59:00.534Z,96534.16
2019-02-06T08:01:32.147Z,96529.38
2019-02-06T08:04:03.631Z,96531.30
2019-02-06T08:06:35.102Z,96530.93
2019-02-06T08:09:10.235Z,96530.95
2019-02-06T08:11:41.752Z,96542.33
2019-02-06T08:14:15.033Z,96537.88
2019-02-06T08:16:46.513Z,96528.65
2019-02-06T08:19:20.329Z,96537.65
2019-02-06T08:21:51.823Z,96529.46
2019-02-06T08:24:23.501Z,96522.27
2019-02-06T08:26:54.950Z,96520.69
2019-02-06T08:29:26.498Z,96521.27
2019-02-06T08:31:58.008Z,96521.68
2019-02-06T08:34:29.727Z,96523.30
2019-02-06T08:37:01.766Z,96520.33
2019-02-06T08:39:33.452Z,96516.22
2019-02-06T08:42:05.420Z,96514.02
2019-02-06T08:44:36.852Z,96514.72
2019-02-06T08:47:08.354Z,96511.88
2019-02-06T08:49:42.122Z,96504.29
2019-02-06T08:52:16.306Z,96507.88
2019-02-06T08:54:47.801Z,96516.25
2019-02-06T08:57:19.253Z,96522.77
2019-02-06T08:59:50.794Z,96520.84
2019-02-06T09:02:22.291Z,96516.67
2019-02-06T09:04:55.973Z,96512.83
2019-02-06T09:07:27.088Z,96512.12
2019-02-06T09:10:00.868Z,96507.94
2019-02-06T09:12:34.295Z,96511.64
2019-02-06T09:15:08.546Z,96510.16
2019-02-06T09:17:41.508Z,96510.16
2019-02-06T09:20:19.517Z,96507.76
2019-02-06T09:22:51.038Z,96506.86
2019-02-06T09:25:23.409Z,96520.35
2019-02-06T09:27:54.980Z,96507.33
2019-02-06T09:30:28.788Z,96509.33
2019-02-06T09:33:00.353Z,96502.58
2019-02-06T09:35:32.217Z,96499.91
2019-02-06T09:38:03.855Z,96503.33
2019-02-06T09:40:35.409Z,96499.55
2019-02-06T09:43:06.886Z,96495.68
2019-02-06T09:45:38.498Z,96499.38
2019-02-06T09:48:13.164Z,96493.68
2019-02-06T09:50:44.633Z,96498.13
2019-02-06T09:53:16.242Z,96484.23
2019-02-06T09:55:47.710Z,96494.33
2019-02-06T09:58:19.263Z,96498.74
2019-02-06T10:00:50.979Z,96486.84
2019-02-06T10:03:28.264Z,96490.01
2019-02-06T10:06:01.578Z,96486.80
2019-02-06T10:08:33.076Z,96481.88
2019-02-06T10:11:04.527Z,96486.94
2019-02-06T10:13:36.042Z,96488.47
2019-02-06T10:16:07.558Z,96481.78
2019-02-06T10:18:39.098Z,96482.94
2019-02-06T10:21:10.594Z,96480.30
2019-02-06T10:23:42.196Z,96476.69
2019-02-06T10:26:13.656Z,96466.58
2019-02-06T10:28:45.174Z,96464.89
2019-02-06T10:31:16.638Z,96458.47
2019-02-06T10:33:49.738Z,96460.07
2019-02-06T10:36:21.188Z,96462.00
2019-02-06T10:38:52.640Z,96465.11
2019-02-06T10:41:24.112Z,96463.01
2019-02-06T10:43:57.471Z,96454.14
2019-02-06T10:46:30.030Z,96452.47
2019-02-06T10:49:01.532Z,96445.23
2019-02-06T10:51:33.112Z,96440.79
2019-02-06T10:54:04.628Z,96430.94
2019-02-06T10:56:36.136Z,96430.86
2019-02-06T10:59:07.782Z,96427.72
2019-02-06T11:01:39.174Z,96426.72
2019-02-06T11:04:10.654Z,96411.33
2019-02-06T11:06:42.138Z,96410.70
2019-02-06T11:09:14.032Z,96409.66
2019-02-06T11:11:45.525Z,96402.11
2019-02-06T11:14:17.073Z,96404.73
2019-02-06T11:16:52.368Z,96399.63
2019-02-06T11:19:25.334Z,96395.11
2019-02-06T11:21:56.828Z,96392.52
2019-02-06T11:24:28.401Z,96396.14
2019-02-06T11:26:59.839Z,96385.88
2019-02-06T11:29:36.812Z,96379.86
2019-02-06T11:32:08.287Z,96377.47
2019-02-06T11:34:39.783Z,96374.63
2019-02-06T11:37:11.548Z,96367.00
2019-02-06T11:39:43.438Z,96367.22
2019-02-06T11:42:15.106Z,96367.70
2019-02-06T11:44:46.576Z,96359.92
2019-02-06T11:47:18.098Z,96361.50
2019-02-06T11:49:52.136Z,96360.44
2019-02-06T11:52:23.890Z,96355.97
2019-02-06T11:54:55.356Z,96347.56
2019-02-06T11:57:26.812Z,96344.80
2019-02-06T12:00:03.663Z,96344.45
2019-02-06T12:02:37.286Z,96337.98
2019-02-06T12:05:12.483Z,96339.07
2019-02-06T12:07:44.039Z,96330.22
2019-02-06T12:10:17.563Z,96326.36
2019-02-06T12:12:49.311Z,96320.02
2019-02-06T12:15:20.793Z,96326.22
2019-02-06T12:17:52.299Z,96310.49
2019-02-06T12:20:24.546Z,96309.45
2019-02-06T12:22:56.064Z,96308.64
2019-02-06T12:25:27.673Z,96304.08
2019-02-06T12:27:59.187Z,96295.91
2019-02-06T12:30:32.802Z,96299.00
2019-02-06T12:33:04.379Z,96297.24
2019-02-06T12:35:35.916Z,96297.89
2019-02-06T12:38:10.985Z,96294.58
2019-02-06T12:40:42.466Z,96283.59
2019-02-06T12:43:13.960Z,96283.58
2019-02-06T12:45:45.625Z,96281.98
2019-02-06T12:48:17.075Z,96277.78
2019-02-06T12:50:48.657Z,96265.38
2019-02-06T12:53:20.127Z,96269.23
2019-02-06T12:55:51.640Z,96266.22
2019-02-06T12:58:26.444Z,96274.89
2019-02-06T13:00:57.988Z,96266.48
2019-02-06T13:03:29.457Z,96271.28
2019-02-06T13:06:00.964Z,96277.17
2019-02-06T13:08:32.430Z,96269.23
2019-02-06T13:11:04.355Z,96269.08
2019-02-06T13:13:35.787Z,96264.56
2019-02-06T13:16:07.301Z,96262.88
2019-02-06T13:18:39.622Z,96260.38
2019-02-06T13:21:11.108Z,96263.81
2019-02-06T13:23:42.843Z,96253.59
2019-02-06T13:26:14.331Z,96253.64
2019-02-06T13:28:45.773Z,96250.88
2019-02-06T13:31:17.289Z,96250.16
2019-02-06T13:33:48.769Z,96243.05
2019-02-06T13:36:20.572Z,96240.36
2019-02-06T13:38:52.385Z,96236.77
2019-02-06T13:41:23.943Z,96237.84
2019-02-06T13:43:55.403Z,96235.55
2019-02-06T13:46:27.221Z,96227.91
2019-02-06T13:48:59.015Z,96228.53
2019-02-06T13:51:30.579Z,96222.91
2019-02-06T13:54:02.047Z,96222.72
2019-02-06T13:56:33.592Z,96215.03
2019-02-06T13:59:07.309Z,96220.22
2019-02-06T14:01:38.263Z,96214.66
2019-02-06T14:04:09.641Z,96211.98
2019-02-06T14:06:42.111Z,96207.78
2019-02-06T14:09:22.543Z,96204.31
2019-02-06T14:11:49.377Z,96200.73
2019-02-06T14:14:21.234Z,96197.98
2019-02-06T14:16:52.835Z,96193.13
2019-02-06T14:19:24.221Z,96194.70
2019-02-06T14:21:55.827Z,96184.46
2019-02-06T14:24:56.569Z,96188.95
2019-02-06T14:28:18.839Z,96184.28
2019-02-06T14:31:51.955Z,96180.56
2019-02-06T14:35:02.290Z,96178.92
2019-02-06T14:38:17.259Z,96172.25
2019-02-06T14:41:45.147Z,96172.58
2019-02-06T14:45:21.419Z,96168.84
2019-02-06T14:48:49.399Z,96158.80
2019-02-06T14:52:12.247Z,96158.80
2019-02-06T14:55:16.782Z,96154.34
2019-02-06T14:58:40.229Z,96151.82
2019-02-06T15:01:26.407Z,96149.03
2019-02-06T15:04:41.591Z,96153.56
2019-02-06T15:07:46.815Z,96149.72
2019-02-06T15:11:25.798Z,96149.47
2019-02-06T15:15:02.945Z,96147.22
2019-02-06T15:18:15.070Z,96140.25
2019-02-06T15:21:38.161Z,96136.91
2019-02-06T15:25:21.925Z,96139.58
2019-02-06T15:28:28.029Z,96133.80
2019-02-06T15:32:08.138Z,96127.69
2019-02-06T15:35:48.501Z,96130.80
2019-02-06T15:39:23.124Z,96123.14
2019-02-06T15:42:14.341Z,96121.23
2019-02-06T15:46:03.150Z,96118.73
2019-02-06T15:49:04.575Z,96109.92
2019-02-06T15:52:38.891Z,96109.20
2019-02-06T15:56:35.359Z,96109.40
2019-02-06T15:59:50.706Z,96104.02
2019-02-06T16:03:13.732Z,96108.64
2019-02-06T16:06:23.314Z,96095.66
2019-02-06T16:09:51.617Z,96099.28
2019-02-06T16:13:15.829Z,96096.67
2019-02-06T16:16:59.100Z,96090.73
2019-02-06T16:20:48.619Z,96085.23
2019-02-06T16:24:28.140Z,96085.41
2019-02-06T16:27:48.257Z,96079.70
2019-02-06T16:31:16.332Z,96086.44
2019-02-06T16:34:34.878Z,96077.11
2019-02-06T16:37:56.825Z,96076.70
2019-02-06T16:41:40.643Z,96081.76
2019-02-06T16:45:07.040Z,96078.94
2019-02-06T16:48:13.260Z,96073.67
2019-02-06T16:50:56.003Z,96071.69
2019-02-06T16:54:34.430Z,96074.45
2019-02-06T16:57:47.168Z,96072.97
2019-02-06T17:01:58.340Z,96074.04
2019-02-06T17:05:31.033Z,96073.66
2019-02-06T17:08:42.167Z,96072.05
2019-02-06T17:11:39.588Z,96068.41
2019-02-06T17:15:13.282Z,96061.09
2019-02-06T17:18:35.205Z,96062.70
2019-02-06T17:21:59.324Z,96063.68
2019-02-06T17:25:26.575Z,96064.13
2019-02-06T17:28:54.113Z,96070.54
2019-02-06T17:32:12.085Z,96063.65
2019-02-06T17:36:05.634Z,96067.78
2019-02-06T17:39:40.165Z,96062.15
2019-02-06T17:43:11.938Z,96059.49
2019-02-06T17:46:06.106Z,96059.89
2019-02-06T17:49:24.323Z,96062.84
2019-02-06T17:52:50.461Z,96052.16
2019-02-06T17:55:25.746Z,96051.78
2019-02-06T17:58:07.344Z,96051.15
2019-02-06T18:01:22.882Z,96048.28
2019-02-06T18:04:02.553Z,96048.43
2019-02-06T18:06:34.019Z,96049.29
2019-02-06T18:09:17.488Z,96040.56
2019-02-06T18:11:52.339Z,96035.84
2019-02-06T18:14:23.844Z,96033.39
2019-02-06T18:16:55.298Z,96028.73
2019-02-06T18:19:26.901Z,96025.98
2019-02-06T18:21:58.474Z,96019.98
2019-02-06T18:24:29.963Z,96017.38
2019-02-06T18:27:02.040Z,96018.23
2019-02-06T18:29:33.577Z,96020.36
2019-02-06T18:32:05.744Z,96024.55
2019-02-06T18:34:37.293Z,96022.80
2019-02-06T18:37:08.850Z,96017.39
2019-02-06T18:39:40.364Z,96019.88
2019-02-06T18:42:12.234Z,96017.70
2019-02-06T18:44:43.749Z,96016.39
2019-02-06T18:47:15.263Z,96010.97
2019-02-06T18:49:48.527Z,96005.64
2019-02-06T18:52:20.705Z,96002.38
2019-02-06T18:54:52.353Z,95998.87
2019-02-06T18:57:23.970Z,95993.59
2019-02-06T18:59:57.345Z,96001.09
2019-02-06T19:02:30.663Z,95994.92
2019-02-06T19:05:03.583Z,95996.57
2019-02-06T19:07:35.106Z,95997.39
2019-02-06T19:10:10.043Z,95987.27
2019-02-06T19:12:48.180Z,95981.61
2019-02-06T19:15:18.494Z,95984.18
2019-02-06T19:17:50.798Z,95977.69
2019-02-06T19:20:22.432Z,95984.02
2019-02-06T19:22:53.926Z,95977.11
2019-02-06T19:25:26.692Z,95982.91
2019-02-06T19:27:59.415Z,95980.03
2019-02-06T19:30:36.225Z,95981.11
2019-02-06T19:33:08.410Z,95974.48
2019-02-06T19:35:39.880Z,95973.11
2019-02-06T19:38:11.342Z,95974.30
2019-02-06T19:40:42.991Z,95966.48
2019-02-06T19:43:14.619Z,95965.12
2019-02-06T19:45:49.953Z,95964.64
2019-02-06T19:48:22.458Z,95962.05
2019-02-06T19:50:56.789Z,95962.75
2019-02-06T19:53:30.470Z,95959.94
2019-02-06T19:56:02.132Z,95950.70
2019-02-06T19:58:35.533Z,95956.83
2019-02-06T20:01:07.160Z,95952.22
2019-02-06T20:03:38.713Z,95946.45
2019-02-06T20:06:28.750Z,95951.16
2019-02-06T20:09:05.506Z,95954.22
2019-02-06T20:11:38.668Z,95954.64
2019-02-06T20:14:10.847Z,95956.71
2019-02-06T20:16:44.396Z,95946.33
2019-02-06T20:19:15.975Z,95946.18
2019-02-06T20:21:47.755Z,95943.31
2019-02-06T20:24:20.576Z,95937.43
2019-02-06T20:26:52.034Z,95938.05
2019-02-06T20:29:23.509Z,95937.93
2019-02-06T20:31:55.011Z,95945.44
2019-02-06T20:34:26.765Z,95948.48
2019-02-06T20:36:58.210Z,95945.59
2019-02-06T20:39:29.823Z,95949.84
2019-02-06T20:42:01.303Z,95938.23
2019-02-06T20:44:34.094Z,95934.50
2019-02-06T20:47:05.622Z,95927.84
2019-02-06T20:49:40.338Z,95927.71
2019-02-06T20:52:11.813Z,95922.83
2019-02-06T20:54:43.522Z,95926.73
2019-02-06T20:57:16.564Z,95921.06
2019-02-06T20:59:51.191Z,95922.41
2019-02-06T21:02:23.023Z,95915.33
2019-02-06T21:04:54.543Z,95904.66
2019-02-06T21:07:26.055Z,95903.17
2019-02-06T21:09:57.654Z,95903.60
2019-02-06T21:12:29.278Z,95901.67
2019-02-06T21:15:01.236Z,95899.55
2019-02-06T21:17:34.289Z,95900.94
2019-02-06T21:20:08.508Z,95892.34
2019-02-06T21:22:42.617Z,95888.14
2019-02-06T21:25:19.060Z,95877.78
2019-02-06T21:27:51.540Z,95885.02
2019-02-06T21:30:26.539Z,95878.59
2019-02-06T21:33:00.511Z,95890.27
2019-02-06T21:35:34.779Z,95881.88
2019-02-06T21:38:06.457Z,95877.58
2019-02-06T21:40:38.005Z,95877.11
2019-02-06T21:43:09.793Z,95876.17
2019-02-06T21:45:41.264Z,95871.81
2019-02-06T21:48:12.742Z,95875.75
2019-02-06T21:50:44.849Z,95875.92
2019-02-06T21:53:16.274Z,95877.16
2019-02-06T21:55:47.773Z,95869.20
2019-02-06T21:58:19.216Z,95875.11
2019-02-06T22:00:50.735Z,95876.20
2019-02-06T22:03:22.249Z,95872.89
2019-02-06T22:05:53.744Z,95872.14
2019-02-06T22:08:25.195Z,95866.54
2019-02-06T22:10:56.739Z,95864.26
2019-02-06T22:13:28.247Z,95859.98
2019-02-06T22:16:02.553Z,95856.74
2019-02-06T22:18:34.053Z,95848.69
2019-02-06T22:21:05.549Z,95848.34
2019-02-06T22:23:37.063Z,95856.30
2019-02-06T22:26:08.611Z,95846.74
2019-02-06T22:28:40.079Z,95844.18
2019-02-06T22:31:13.317Z,95834.11
2019-02-06T22:33:46.947Z,95839.12
2019-02-06T22:36:18.084Z,95831.32
2019-02-06T22:38:49.556Z,95822.84
2019-02-06T22:41:21.039Z,95822.22
2019-02-06T22:43:52.749Z,95818.05
2019-02-06T22:46:27.084Z,95816.88
2019-02-06T22:48:58.513Z,95810.09
2019-02-06T22:51:30.499Z,95810.25
2019-02-06T22:54:02.068Z,95809.47
2019-02-06T22:56:33.641Z,95814.33
2019-02-06T22:59:05.366Z,95817.47
2019-02-06T23:01:48.689Z,95816.77
2019-02-06T23:04:21.530Z,95812.80
2019-02-06T23:06:53.133Z,95819.56
2019-02-06T23:09:26.919Z,95815.09
2019-02-06T23:11:59.924Z,95811.88
2019-02-06T23:14:31.695Z,95813.98
2019-02-06T23:17:03.201Z,95812.42
2019-02-06T23:19:36.953Z,95818.50
2019-02-06T23:22:09.304Z,95805.03
2019-02-06T23:24:40.743Z,95801.84
2019-02-06T23:27:12.299Z,95807.22
2019-02-06T23:29:43.799Z,95798.11
2019-02-06T23:32:15.292Z,95794.55
2019-02-06T23:34:46.753Z,95797.86
2019-02-06T23:37:18.241Z,95789.30
2019-02-06T23:39:52.837Z,95788.47
2019-02-06T23:42:24.321Z,95781.89
2019-02-06T23:44:55.792Z,95785.20
2019-02-06T23:47:27.321Z,95785.27
2019-02-06T23:50:00.393Z,95783.36
2019-02-06T23:52:32.028Z,95779.61
2019-02-06T23:55:05.532Z,95777.87
2019-02-06T23:57:37.031Z,95779.96
